createdAt,value
2019-01-02T00:00:52.049Z,1008.36
2019-01-02T00:01:52.000Z,1008.34
2019-01-02T00:02:51.997Z,1008.27
2019-01-02T00:03:51.999Z,1008.29
2019-01-02T00:04:51.975Z,1008.29
2019-01-02T00:05:51.961Z,1008.27
2019-01-02T00:06:51.979Z,1008.26
2019-01-02T00:07:51.940Z,1008.30
2019-01-02T00:08:51.918Z,1008.33
2019-01-02T00:09:51.912Z,1008.30
2019-01-02T00:10:51.911Z,1008.31
2019-01-02T00:11:51.905Z,1008.25
2019-01-02T00:12:51.917Z,1008.25
2019-01-02T00:13:51.870Z,1008.32
2019-01-02T00:14:51.854Z,1008.33
2019-01-02T00:15:51.854Z,1008.28
2019-01-02T00:16:51.857Z,1008.34
2019-01-02T00:17:51.829Z,1008.40
2019-01-02T00:18:51.804Z,1008.29
2019-01-02T00:19:51.814Z,1008.33
2019-01-02T00:20:51.796Z,1008.40
2019-01-02T00:21:51.805Z,1008.35
2019-01-02T00:22:51.758Z,1008.40
2019-01-02T00:23:51.747Z,1008.42
2019-01-02T00:24:51.739Z,1008.39
2019-01-02T00:25:51.736Z,1008.41
2019-01-02T00:26:51.742Z,1008.51
2019-01-02T00:27:51.707Z,1008.48
2019-01-02T00:28:51.696Z,1008.48
2019-01-02T00:29:51.676Z,1008.47
2019-01-02T00:30:51.670Z,1008.58
2019-01-02T00:31:51.690Z,1008.47
2019-01-02T00:32:51.691Z,1008.53
2019-01-02T00:33:51.683Z,1008.54
2019-01-02T00:34:51.656Z,1008.56
2019-01-02T00:35:51.644Z,1008.55
2019-01-02T00:36:51.620Z,1008.54
2019-01-02T00:37:51.636Z,1008.59
2019-01-02T00:38:51.609Z,1008.60
2019-01-02T00:39:51.574Z,1008.63
2019-01-02T00:40:51.584Z,1008.62
2019-01-02T00:41:51.582Z,1008.61
2019-01-02T00:42:51.538Z,1008.58
2019-01-02T00:43:51.544Z,1008.64
2019-01-02T00:44:51.526Z,1008.59
2019-01-02T00:45:51.499Z,1008.69
2019-01-02T00:46:51.544Z,1008.72
2019-01-02T00:47:51.484Z,1008.73
2019-01-02T00:48:51.476Z,1008.55
2019-01-02T00:49:51.459Z,1008.66
2019-01-02T00:50:51.460Z,1008.58
2019-01-02T00:51:51.428Z,1008.62
2019-01-02T00:52:51.448Z,1008.60
2019-01-02T00:53:51.421Z,1008.68
2019-01-02T00:54:51.442Z,1008.72
2019-01-02T00:55:51.382Z,1008.66
2019-01-02T00:56:51.373Z,1008.66
2019-01-02T00:57:51.442Z,1008.68
2019-01-02T00:58:51.380Z,1008.73
2019-01-02T00:59:51.352Z,1008.75
2019-01-02T01:00:51.337Z,1008.80
2019-01-02T01:01:51.350Z,1008.81
2019-01-02T01:02:51.881Z,1008.77
2019-01-02T01:03:51.293Z,1008.74
2019-01-02T01:04:51.280Z,1008.84
2019-01-02T01:05:51.273Z,1008.78
2019-01-02T01:06:51.261Z,1008.81
2019-01-02T01:07:51.272Z,1008.70
2019-01-02T01:08:51.235Z,1008.76
2019-01-02T01:09:51.225Z,1008.66
2019-01-02T01:10:51.226Z,1008.68
2019-01-02T01:11:51.204Z,1008.72
2019-01-02T01:12:51.218Z,1008.76
2019-01-02T01:13:51.179Z,1008.82
2019-01-02T01:14:51.183Z,1008.70
2019-01-02T01:15:51.170Z,1008.83
2019-01-02T01:16:51.147Z,1008.78
2019-01-02T01:17:51.176Z,1008.83
2019-01-02T01:18:51.118Z,1008.89
2019-01-02T01:19:51.131Z,1008.91
2019-01-02T01:20:51.098Z,1008.88
2019-01-02T01:21:51.092Z,1008.91
2019-01-02T01:22:51.128Z,1008.91
2019-01-02T01:23:51.074Z,1008.93
2019-01-02T01:24:51.144Z,1008.93
2019-01-02T01:25:51.046Z,1008.95
2019-01-02T01:26:51.041Z,1008.90
2019-01-02T01:27:51.049Z,1008.91
2019-01-02T01:28:51.021Z,1009.01
2019-01-02T01:29:50.996Z,1008.94
2019-01-02T01:30:50.992Z,1008.94
2019-01-02T01:31:50.987Z,1008.93
2019-01-02T01:32:50.964Z,1008.93
2019-01-02T01:33:50.976Z,1008.93
2019-01-02T01:34:50.946Z,1008.98
2019-01-02T01:35:50.942Z,1008.98
2019-01-02T01:36:50.922Z,1009.00
2019-01-02T01:37:50.917Z,1009.05
2019-01-02T01:38:50.922Z,1009.04
2019-01-02T01:39:50.899Z,1009.05
2019-01-02T01:40:50.879Z,1009.08
2019-01-02T01:41:50.867Z,1009.00
2019-01-02T01:42:50.855Z,1008.94
2019-01-02T01:43:50.854Z,1009.02
2019-01-02T01:44:50.836Z,1009.00
2019-01-02T01:45:50.818Z,1009.06
2019-01-02T01:46:50.807Z,1009.21
2019-01-02T01:47:50.842Z,1009.09
2019-01-02T01:48:50.817Z,1009.05
2019-01-02T01:49:50.807Z,1009.14
2019-01-02T01:50:50.758Z,1009.15
2019-01-02T01:51:50.745Z,1009.09
2019-01-02T01:52:50.736Z,1009.12
2019-01-02T01:53:50.737Z,1009.13
2019-01-02T01:54:50.731Z,1009.15
2019-01-02T01:55:50.713Z,1009.15
2019-01-02T01:56:50.752Z,1009.14
2019-01-02T01:57:50.678Z,1009.11
2019-01-02T01:58:50.689Z,1009.11
2019-01-02T01:59:50.658Z,1009.07
2019-01-02T02:00:50.649Z,1009.06
2019-01-02T02:01:50.629Z,1009.10
2019-01-02T02:02:50.649Z,1009.19
2019-01-02T02:03:50.636Z,1009.02
2019-01-02T02:04:50.606Z,1009.09
2019-01-02T02:05:50.591Z,1009.09
2019-01-02T02:06:50.620Z,1009.05
2019-01-02T02:07:50.597Z,1009.08
2019-01-02T02:08:50.567Z,1009.14
2019-01-02T02:09:50.571Z,1009.07
2019-01-02T02:10:50.533Z,1009.13
2019-01-02T02:11:50.519Z,1009.13
2019-01-02T02:12:50.515Z,1009.07
2019-01-02T02:13:50.528Z,1009.13
2019-01-02T02:14:50.481Z,1009.10
2019-01-02T02:15:50.471Z,1009.12
2019-01-02T02:16:50.521Z,1009.05
2019-01-02T02:17:50.457Z,1009.14
2019-01-02T02:18:50.437Z,1009.20
2019-01-02T02:19:50.458Z,1009.21
2019-01-02T02:20:51.488Z,1009.22
2019-01-02T02:21:50.408Z,1009.15
2019-01-02T02:22:50.409Z,1009.15
2019-01-02T02:23:50.401Z,1009.13
2019-01-02T02:24:50.398Z,1009.16
2019-01-02T02:25:50.366Z,1009.16
2019-01-02T02:26:50.349Z,1009.25
2019-01-02T02:27:50.346Z,1009.28
2019-01-02T02:28:50.329Z,1009.27
2019-01-02T02:29:50.337Z,1009.30
2019-01-02T02:30:50.303Z,1009.31
2019-01-02T02:31:50.293Z,1009.34
2019-01-02T02:32:50.281Z,1009.34
2019-01-02T02:33:50.310Z,1009.38
2019-01-02T02:34:50.317Z,1009.41
2019-01-02T02:35:50.265Z,1009.27
2019-01-02T02:36:50.237Z,1009.35
2019-01-02T02:37:50.233Z,1009.37
2019-01-02T02:38:50.249Z,1009.36
2019-01-02T02:39:50.229Z,1009.45
2019-01-02T02:40:50.207Z,1009.36
2019-01-02T02:41:50.181Z,1009.38
2019-01-02T02:42:50.176Z,1009.43
2019-01-02T02:43:50.275Z,1009.45
2019-01-02T02:44:50.163Z,1009.41
2019-01-02T02:45:50.138Z,1009.36
2019-01-02T02:46:50.126Z,1009.39
2019-01-02T02:47:50.143Z,1009.45
2019-01-02T02:48:50.111Z,1009.40
2019-01-02T02:49:50.124Z,1009.42
2019-01-02T02:50:50.087Z,1009.38
2019-01-02T02:51:50.109Z,1009.42
2019-01-02T02:52:50.068Z,1009.39
2019-01-02T02:53:50.043Z,1009.35
2019-01-02T02:54:50.089Z,1009.40
2019-01-02T02:55:50.011Z,1009.47
2019-01-02T02:56:50.105Z,1009.38
2019-01-02T02:57:49.996Z,1009.41
2019-01-02T02:58:49.991Z,1009.44
2019-01-02T02:59:49.993Z,1009.41
2019-01-02T03:00:50.013Z,1009.43
2019-01-02T03:01:49.965Z,1009.36
2019-01-02T03:02:49.955Z,1009.34
2019-01-02T03:03:49.937Z,1009.40
2019-01-02T03:04:49.933Z,1009.45
2019-01-02T03:05:49.925Z,1009.41
2019-01-02T03:06:53.190Z,1009.42
2019-01-02T03:07:50.905Z,1009.38
2019-01-02T03:08:49.869Z,1009.45
2019-01-02T03:09:49.869Z,1009.35
2019-01-02T03:10:49.873Z,1009.49
2019-01-02T03:11:49.837Z,1009.44
2019-01-02T03:12:49.845Z,1009.52
2019-01-02T03:13:49.833Z,1009.51
2019-01-02T03:14:49.849Z,1009.49
2019-01-02T03:15:49.810Z,1009.42
2019-01-02T03:16:49.814Z,1009.57
2019-01-02T03:17:49.775Z,1009.51
2019-01-02T03:18:49.757Z,1009.50
2019-01-02T03:19:49.751Z,1009.49
2019-01-02T03:20:49.799Z,1009.58
2019-01-02T03:21:49.762Z,1009.65
2019-01-02T03:22:49.783Z,1009.70
2019-01-02T03:23:49.733Z,1009.66
2019-01-02T03:24:49.701Z,1009.65
2019-01-02T03:25:49.829Z,1009.64
2019-01-02T03:26:49.688Z,1009.60
2019-01-02T03:27:49.659Z,1009.65
2019-01-02T03:28:49.649Z,1009.66
2019-01-02T03:29:49.680Z,1009.67
2019-01-02T03:30:49.655Z,1009.69
2019-01-02T03:31:49.621Z,1009.69
2019-01-02T03:32:49.621Z,1009.71
2019-01-02T03:33:49.599Z,1009.75
2019-01-02T03:34:49.589Z,1009.83
2019-01-02T03:35:49.610Z,1009.76
2019-01-02T03:36:49.623Z,1009.72
2019-01-02T03:37:49.642Z,1009.74
2019-01-02T03:38:49.536Z,1009.75
2019-01-02T03:39:49.590Z,1009.86
2019-01-02T03:40:49.546Z,1009.85
2019-01-02T03:41:49.532Z,1009.82
2019-01-02T03:42:49.491Z,1009.81
2019-01-02T03:43:49.507Z,1009.76
2019-01-02T03:44:49.516Z,1009.78
2019-01-02T03:45:49.529Z,1009.90
2019-01-02T03:46:49.478Z,1009.79
2019-01-02T03:47:49.434Z,1009.77
2019-01-02T03:48:49.456Z,1009.71
2019-01-02T03:49:49.416Z,1009.78
2019-01-02T03:50:49.452Z,1009.84
2019-01-02T03:51:49.419Z,1009.63
2019-01-02T03:52:49.418Z,1009.70
2019-01-02T03:53:49.374Z,1009.60
2019-01-02T03:54:49.364Z,1009.63
2019-01-02T03:55:49.386Z,1009.62
2019-01-02T03:56:49.362Z,1009.75
2019-01-02T03:57:49.325Z,1009.72
2019-01-02T03:58:49.326Z,1009.74
2019-01-02T03:59:49.296Z,1009.83
2019-01-02T04:00:49.298Z,1009.72
2019-01-02T04:01:49.296Z,1009.82
2019-01-02T04:02:49.271Z,1009.73
2019-01-02T04:03:49.262Z,1009.86
2019-01-02T04:04:49.256Z,1009.80
2019-01-02T04:05:49.247Z,1009.87
2019-01-02T04:06:49.268Z,1009.91
2019-01-02T04:07:49.214Z,1009.88
2019-01-02T04:08:49.198Z,1009.86
2019-01-02T04:09:49.188Z,1009.85
2019-01-02T04:10:49.202Z,1009.96
2019-01-02T04:11:49.208Z,1009.96
2019-01-02T04:12:49.170Z,1009.89
2019-01-02T04:13:49.147Z,1009.90
2019-01-02T04:14:49.136Z,1009.98
2019-01-02T04:15:49.170Z,1010.06
2019-01-02T04:16:49.138Z,1010.08
2019-01-02T04:17:49.126Z,1010.11
2019-01-02T04:18:49.120Z,1010.11
2019-01-02T04:19:49.087Z,1010.18
2019-01-02T04:20:49.082Z,1010.06
2019-01-02T04:21:49.185Z,1010.07
2019-01-02T04:22:49.052Z,1010.13
2019-01-02T04:23:49.041Z,1010.20
2019-01-02T04:24:49.014Z,1010.19
2019-01-02T04:25:49.018Z,1010.20
2019-01-02T04:26:49.002Z,1010.25
2019-01-02T04:27:49.007Z,1010.30
2019-01-02T04:28:48.989Z,1010.27
2019-01-02T04:29:48.993Z,1010.36
2019-01-02T04:30:48.957Z,1010.34
2019-01-02T04:31:48.988Z,1010.32
2019-01-02T04:32:48.959Z,1010.43
2019-01-02T04:33:48.931Z,1010.42
2019-01-02T04:34:48.949Z,1010.41
2019-01-02T04:35:48.894Z,1010.50
2019-01-02T04:36:48.888Z,1010.62
2019-01-02T04:37:48.902Z,1010.66
2019-01-02T04:38:48.906Z,1010.66
2019-01-02T04:39:48.861Z,1010.68
2019-01-02T04:40:48.863Z,1010.83
2019-01-02T04:41:48.846Z,1010.72
2019-01-02T04:42:48.863Z,1010.70
2019-01-02T04:43:48.805Z,1010.69
2019-01-02T04:44:48.813Z,1010.68
2019-01-02T04:45:48.790Z,1010.69
2019-01-02T04:46:48.823Z,1010.77
2019-01-02T04:47:48.794Z,1010.84
2019-01-02T04:48:48.757Z,1010.79
2019-01-02T04:49:48.739Z,1010.77
2019-01-02T04:50:48.747Z,1010.79
2019-01-02T04:51:48.714Z,1010.83
2019-01-02T04:52:48.733Z,1010.80
2019-01-02T04:53:48.715Z,1010.74
2019-01-02T04:54:48.685Z,1010.80
2019-01-02T04:55:48.666Z,1010.81
2019-01-02T04:56:48.661Z,1010.80
2019-01-02T04:57:48.686Z,1010.77
2019-01-02T04:58:48.641Z,1010.75
2019-01-02T04:59:48.658Z,1010.78
2019-01-02T05:00:48.783Z,1010.84
2019-01-02T05:01:49.409Z,1010.79
2019-01-02T05:02:48.608Z,1010.80
2019-01-02T05:03:48.593Z,1010.88
2019-01-02T05:04:48.614Z,1010.82
2019-01-02T05:05:48.566Z,1010.87
2019-01-02T05:06:48.558Z,1010.87
2019-01-02T05:07:48.706Z,1010.90
2019-01-02T05:08:48.532Z,1010.96
2019-01-02T05:09:48.532Z,1010.95
2019-01-02T05:10:48.504Z,1010.93
2019-01-02T05:11:48.506Z,1011.00
2019-01-02T05:12:48.482Z,1011.03
2019-01-02T05:13:48.483Z,1011.03
2019-01-02T05:14:48.464Z,1011.11
2019-01-02T05:15:48.468Z,1011.09
2019-01-02T05:16:48.428Z,1011.09
2019-01-02T05:17:48.425Z,1011.11
2019-01-02T05:18:48.429Z,1011.15
2019-01-02T05:19:48.403Z,1011.11
2019-01-02T05:20:48.410Z,1011.15
2019-01-02T05:21:48.394Z,1011.20
2019-01-02T05:22:48.364Z,1011.23
2019-01-02T05:23:48.370Z,1011.26
2019-01-02T05:24:48.344Z,1011.17
2019-01-02T05:25:48.337Z,1011.26
2019-01-02T05:26:48.319Z,1011.20
2019-01-02T05:27:48.311Z,1011.23
2019-01-02T05:28:48.419Z,1011.23
2019-01-02T05:29:48.292Z,1011.28
2019-01-02T05:30:48.284Z,1011.28
2019-01-02T05:31:48.274Z,1011.35
2019-01-02T05:32:48.258Z,1011.31
2019-01-02T05:33:48.256Z,1011.28
2019-01-02T05:34:48.230Z,1011.41
2019-01-02T05:35:48.218Z,1011.38
2019-01-02T05:36:48.215Z,1011.37
2019-01-02T05:37:48.216Z,1011.43
2019-01-02T05:38:48.195Z,1011.40
2019-01-02T05:39:48.242Z,1011.47
2019-01-02T05:40:48.158Z,1011.52
2019-01-02T05:41:48.158Z,1011.45
2019-01-02T05:42:48.142Z,1011.51
2019-01-02T05:43:48.150Z,1011.55
2019-01-02T05:44:48.122Z,1011.53
2019-01-02T05:45:48.106Z,1011.57
2019-01-02T05:46:48.103Z,1011.60
2019-01-02T05:47:48.083Z,1011.60
2019-01-02T05:48:48.098Z,1011.63
2019-01-02T05:49:48.088Z,1011.65
2019-01-02T05:50:48.129Z,1011.69
2019-01-02T05:51:48.036Z,1011.71
2019-01-02T05:52:48.032Z,1011.68
2019-01-02T05:53:48.042Z,1011.76
2019-01-02T05:54:48.027Z,1011.70
2019-01-02T05:55:48.010Z,1011.70
2019-01-02T05:56:47.980Z,1011.78
2019-01-02T05:57:47.973Z,1011.82
2019-01-02T05:58:47.973Z,1011.78
2019-01-02T05:59:47.968Z,1011.89
2019-01-02T06:00:47.932Z,1011.94
2019-01-02T06:01:47.955Z,1011.87
2019-01-02T06:02:47.906Z,1011.88
2019-01-02T06:03:47.904Z,1011.88
2019-01-02T06:04:47.982Z,1011.92
2019-01-02T06:05:47.892Z,1011.94
2019-01-02T06:06:47.866Z,1011.94
2019-01-02T06:07:47.855Z,1011.97
2019-01-02T06:08:47.846Z,1011.91
2019-01-02T06:09:47.862Z,1011.98
2019-01-02T06:10:47.839Z,1012.02
2019-01-02T06:11:47.916Z,1012.00
2019-01-02T06:12:47.820Z,1012.01
2019-01-02T06:13:47.791Z,1012.13
2019-01-02T06:14:47.800Z,1012.06
2019-01-02T06:15:47.764Z,1012.12
2019-01-02T06:16:47.758Z,1012.14
2019-01-02T06:17:47.744Z,1012.15
2019-01-02T06:18:47.798Z,1012.13
2019-01-02T06:19:47.740Z,1012.11
2019-01-02T06:20:47.712Z,1012.17
2019-01-02T06:21:47.714Z,1012.16
2019-01-02T06:22:47.696Z,1012.26
2019-01-02T06:23:47.684Z,1012.25
2019-01-02T06:24:47.678Z,1012.27
2019-01-02T06:25:47.731Z,1012.32
2019-01-02T06:26:47.637Z,1012.44
2019-01-02T06:27:47.627Z,1012.33
2019-01-02T06:28:47.617Z,1012.35
2019-01-02T06:29:47.635Z,1012.32
2019-01-02T06:30:47.599Z,1012.35
2019-01-02T06:31:47.594Z,1012.36
2019-01-02T06:32:47.581Z,1012.43
2019-01-02T06:33:47.560Z,1012.38
2019-01-02T06:34:47.549Z,1012.43
2019-01-02T06:35:47.560Z,1012.39
2019-01-02T06:36:47.577Z,1012.39
2019-01-02T06:37:47.512Z,1012.41
2019-01-02T06:38:47.516Z,1012.45
2019-01-02T06:39:47.593Z,1012.50
2019-01-02T06:40:47.537Z,1012.52
2019-01-02T06:41:47.468Z,1012.66
2019-01-02T06:42:47.476Z,1012.54
2019-01-02T06:43:47.468Z,1012.64
2019-01-02T06:44:47.440Z,1012.69
2019-01-02T06:45:47.463Z,1012.74
2019-01-02T06:46:47.410Z,1012.76
2019-01-02T06:47:47.398Z,1012.74
2019-01-02T06:48:47.425Z,1012.77
2019-01-02T06:49:47.379Z,1012.77
2019-01-02T06:50:47.419Z,1012.80
2019-01-02T06:51:47.394Z,1012.87
2019-01-02T06:52:47.348Z,1012.86
2019-01-02T06:53:47.334Z,1012.84
2019-01-02T06:54:47.328Z,1012.88
2019-01-02T06:55:47.334Z,1012.92
2019-01-02T06:56:47.330Z,1012.90
2019-01-02T06:57:47.312Z,1012.96
2019-01-02T06:58:47.276Z,1013.02
2019-01-02T06:59:47.274Z,1012.91
2019-01-02T07:00:47.276Z,1012.95
2019-01-02T07:01:47.255Z,1013.00
2019-01-02T07:02:47.248Z,1013.05
2019-01-02T07:03:47.225Z,1013.06
2019-01-02T07:04:47.212Z,1013.04
2019-01-02T07:05:47.222Z,1013.09
2019-01-02T07:06:47.188Z,1013.17
2019-01-02T07:07:47.186Z,1013.15
2019-01-02T07:08:47.189Z,1013.20
2019-01-02T07:09:47.206Z,1013.25
2019-01-02T07:10:47.174Z,1013.23
2019-01-02T07:11:47.138Z,1013.27
2019-01-02T07:12:47.134Z,1013.26
2019-01-02T07:13:47.106Z,1013.32
2019-01-02T07:14:47.097Z,1013.31
2019-01-02T07:15:47.194Z,1013.37
2019-01-02T07:16:47.080Z,1013.40
2019-01-02T07:17:47.074Z,1013.43
2019-01-02T07:18:47.070Z,1013.46
2019-01-02T07:19:47.045Z,1013.46
2019-01-02T07:20:47.042Z,1013.41
2019-01-02T07:21:47.033Z,1013.49
2019-01-02T07:22:47.021Z,1013.41
2019-01-02T07:23:47.012Z,1013.64
2019-01-02T07:24:46.989Z,1013.50
2019-01-02T07:25:46.976Z,1013.53
2019-01-02T07:26:48.271Z,1013.59
2019-01-02T07:27:46.955Z,1013.59
2019-01-02T07:28:46.940Z,1013.61
2019-01-02T07:29:46.930Z,1013.63
2019-01-02T07:30:46.917Z,1013.67
2019-01-02T07:31:46.960Z,1013.66
2019-01-02T07:32:46.899Z,1013.66
2019-01-02T07:33:46.899Z,1013.82
2019-01-02T07:34:46.881Z,1013.77
2019-01-02T07:35:46.866Z,1013.79
2019-01-02T07:36:46.884Z,1013.93
2019-01-02T07:37:46.845Z,1013.77
2019-01-02T07:38:46.830Z,1013.89
2019-01-02T07:39:46.821Z,1013.94
2019-01-02T07:40:46.808Z,1013.92
2019-01-02T07:41:46.825Z,1013.96
2019-01-02T07:42:46.787Z,1014.08
2019-01-02T07:43:46.767Z,1013.94
2019-01-02T07:44:46.775Z,1013.95
2019-01-02T07:45:46.748Z,1013.95
2019-01-02T07:46:46.773Z,1013.94
2019-01-02T07:47:46.741Z,1014.04
2019-01-02T07:48:46.714Z,1014.00
2019-01-02T07:49:46.715Z,1013.99
2019-01-02T07:50:46.691Z,1014.01
2019-01-02T07:51:46.700Z,1014.01
2019-01-02T07:52:46.662Z,1014.08
2019-01-02T07:53:46.650Z,1014.08
2019-01-02T07:54:46.645Z,1014.11
2019-01-02T07:55:46.681Z,1014.15
2019-01-02T07:56:46.722Z,1014.19
2019-01-02T07:57:46.674Z,1014.19
2019-01-02T07:58:46.599Z,1014.17
2019-01-02T07:59:46.592Z,1014.18
2019-01-02T08:00:46.587Z,1014.28
2019-01-02T08:01:46.912Z,1014.29
2019-01-02T08:02:46.558Z,1014.45
2019-01-02T08:03:46.847Z,1014.39
2019-01-02T08:04:46.586Z,1014.33
2019-01-02T08:05:46.523Z,1014.38
2019-01-02T08:06:46.529Z,1014.44
2019-01-02T08:07:46.530Z,1014.44
2019-01-02T08:08:46.495Z,1014.42
2019-01-02T08:09:46.488Z,1014.49
2019-01-02T08:10:46.476Z,1014.52
2019-01-02T08:11:46.506Z,1014.58
2019-01-02T08:12:46.482Z,1014.63
2019-01-02T08:13:46.449Z,1014.54
2019-01-02T08:14:46.422Z,1014.62
2019-01-02T08:15:46.416Z,1014.63
2019-01-02T08:16:46.404Z,1014.68
2019-01-02T08:17:46.404Z,1014.68
2019-01-02T08:18:46.374Z,1014.69
2019-01-02T08:19:46.419Z,1014.74
2019-01-02T08:20:46.356Z,1014.78
2019-01-02T08:21:46.385Z,1014.81
2019-01-02T08:22:46.357Z,1014.84
2019-01-02T08:23:46.330Z,1014.88
2019-01-02T08:24:46.325Z,1014.89
2019-01-02T08:25:46.294Z,1014.93
2019-01-02T08:26:46.287Z,1014.88
2019-01-02T08:27:46.295Z,1014.94
2019-01-02T08:28:46.304Z,1014.93
2019-01-02T08:29:46.262Z,1014.93
2019-01-02T08:30:46.271Z,1015.04
2019-01-02T08:31:46.234Z,1015.00
2019-01-02T08:32:46.244Z,1015.02
2019-01-02T08:33:46.214Z,1015.20
2019-01-02T08:34:46.203Z,1015.21
2019-01-02T08:35:46.202Z,1015.25
2019-01-02T08:36:46.182Z,1015.24
2019-01-02T08:37:46.197Z,1015.25
2019-01-02T08:38:46.164Z,1015.28
2019-01-02T08:39:46.156Z,1015.28
2019-01-02T08:40:46.136Z,1015.29
2019-01-02T08:41:46.122Z,1015.25
2019-01-02T08:42:46.148Z,1015.41
2019-01-02T08:43:46.098Z,1015.34
2019-01-02T08:44:46.093Z,1015.41
2019-01-02T08:45:46.088Z,1015.47
2019-01-02T08:46:46.065Z,1015.43
2019-01-02T08:47:46.065Z,1015.60
2019-01-02T08:48:46.069Z,1015.57
2019-01-02T08:49:46.035Z,1015.64
2019-01-02T08:50:46.023Z,1015.71
2019-01-02T08:51:46.004Z,1015.82
2019-01-02T08:52:46.006Z,1015.80
2019-01-02T08:53:46.015Z,1015.88
2019-01-02T08:54:45.984Z,1015.90
2019-01-02T08:55:45.973Z,1015.91
2019-01-02T08:56:45.959Z,1015.96
2019-01-02T08:57:45.941Z,1016.02
2019-01-02T08:58:45.950Z,1016.10
2019-01-02T08:59:45.917Z,1016.03
2019-01-02T09:00:45.903Z,1016.10
2019-01-02T09:01:45.900Z,1016.17
2019-01-02T09:02:45.885Z,1016.16
2019-01-02T09:03:45.894Z,1016.14
2019-01-02T09:04:45.867Z,1016.20
2019-01-02T09:05:45.873Z,1016.29
2019-01-02T09:06:45.881Z,1016.29
2019-01-02T09:07:45.875Z,1016.32
2019-01-02T09:08:45.843Z,1016.27
2019-01-02T09:09:45.811Z,1016.29
2019-01-02T09:10:46.012Z,1016.37
2019-01-02T09:11:45.789Z,1016.38
2019-01-02T09:12:45.820Z,1016.45
2019-01-02T09:13:45.787Z,1016.45
2019-01-02T09:14:45.750Z,1016.48
2019-01-02T09:15:45.769Z,1016.47
2019-01-02T09:16:45.734Z,1016.52
2019-01-02T09:17:45.725Z,1016.61
2019-01-02T09:18:45.764Z,1016.57
2019-01-02T09:19:45.724Z,1016.57
2019-01-02T09:20:45.699Z,1016.58
2019-01-02T09:21:45.677Z,1016.59
2019-01-02T09:22:45.667Z,1016.56
2019-01-02T09:23:45.683Z,1016.59
2019-01-02T09:24:45.669Z,1016.61
2019-01-02T09:25:45.627Z,1016.48
2019-01-02T09:26:45.609Z,1016.54
2019-01-02T09:27:45.730Z,1016.60
2019-01-02T09:28:45.592Z,1016.66
2019-01-02T09:29:45.612Z,1016.71
2019-01-02T09:30:45.634Z,1016.65
2019-01-02T09:31:45.566Z,1016.72
2019-01-02T09:32:45.611Z,1016.68
2019-01-02T09:33:51.934Z,1016.71
2019-01-02T09:34:46.562Z,1016.82
2019-01-02T09:35:45.546Z,1016.87
2019-01-02T09:36:45.509Z,1016.89
2019-01-02T09:37:45.504Z,1016.93
2019-01-02T09:38:45.503Z,1016.88
2019-01-02T09:39:45.489Z,1016.87
2019-01-02T09:40:45.512Z,1016.87
2019-01-02T09:41:45.451Z,1016.92
2019-01-02T09:42:45.566Z,1016.86
2019-01-02T09:43:45.455Z,1016.91
2019-01-02T09:44:45.424Z,1017.05
2019-01-02T09:45:45.492Z,1016.98
2019-01-02T09:46:45.420Z,1017.01
2019-01-02T09:47:45.379Z,1017.05
2019-01-02T09:48:45.373Z,1017.01
2019-01-02T09:49:45.375Z,1017.08
2019-01-02T09:50:45.350Z,1017.05
2019-01-02T09:51:45.345Z,1017.06
2019-01-02T09:52:45.321Z,1017.11
2019-01-02T09:53:45.307Z,1017.06
2019-01-02T09:54:45.320Z,1017.08
2019-01-02T09:55:45.289Z,1017.11
2019-01-02T09:56:45.282Z,1017.08
2019-01-02T09:57:45.303Z,1017.13
2019-01-02T09:58:45.247Z,1017.15
2019-01-02T09:59:45.270Z,1017.14
2019-01-02T10:00:45.233Z,1017.18
2019-01-02T10:01:45.219Z,1017.16
2019-01-02T10:02:45.209Z,1017.18
2019-01-02T10:03:45.201Z,1017.26
2019-01-02T10:04:45.209Z,1017.27
2019-01-02T10:05:45.180Z,1017.22
2019-01-02T10:06:45.157Z,1017.25
2019-01-02T10:07:45.156Z,1017.23
2019-01-02T10:08:45.149Z,1017.25
2019-01-02T10:09:45.166Z,1017.25
2019-01-02T10:10:45.117Z,1017.23
2019-01-02T10:11:45.104Z,1017.25
2019-01-02T10:12:45.235Z,1017.26
2019-01-02T10:13:45.095Z,1017.31
2019-01-02T10:14:45.121Z,1017.29
2019-01-02T10:15:45.093Z,1017.32
2019-01-02T10:16:45.052Z,1017.27
2019-01-02T10:17:45.050Z,1017.33
2019-01-02T10:18:45.035Z,1017.32
2019-01-02T10:19:45.024Z,1017.35
2019-01-02T10:20:45.028Z,1017.34
2019-01-02T10:21:44.998Z,1017.41
2019-01-02T10:22:44.998Z,1017.32
2019-01-02T10:23:44.978Z,1017.33
2019-01-02T10:24:44.963Z,1017.38
2019-01-02T10:25:44.972Z,1017.37
2019-01-02T10:26:44.949Z,1017.39
2019-01-02T10:27:44.931Z,1017.38
2019-01-02T10:28:44.924Z,1017.43
2019-01-02T10:29:44.908Z,1017.43
2019-01-02T10:30:44.926Z,1017.37
2019-01-02T10:31:44.883Z,1017.42
2019-01-02T10:32:44.872Z,1017.40
2019-01-02T10:33:44.866Z,1017.43
2019-01-02T10:34:44.891Z,1017.50
2019-01-02T10:35:44.856Z,1017.46
2019-01-02T10:36:44.824Z,1017.56
2019-01-02T10:37:44.814Z,1017.53
2019-01-02T10:38:44.804Z,1017.54
2019-01-02T10:39:44.793Z,1017.56
2019-01-02T10:40:44.802Z,1017.58
2019-01-02T10:41:44.770Z,1017.53
2019-01-02T10:42:44.774Z,1017.57
2019-01-02T10:43:44.750Z,1017.64
2019-01-02T10:44:44.733Z,1017.65
2019-01-02T10:45:44.747Z,1017.69
2019-01-02T10:46:44.714Z,1017.68
2019-01-02T10:47:44.705Z,1017.73
2019-01-02T10:48:44.695Z,1017.69
2019-01-02T10:49:44.680Z,1017.70
2019-01-02T10:50:44.689Z,1017.76
2019-01-02T10:51:44.659Z,1017.73
2019-01-02T10:52:44.645Z,1017.70
2019-01-02T10:53:44.632Z,1017.73
2019-01-02T10:54:44.621Z,1017.70
2019-01-02T10:55:44.642Z,1017.69
2019-01-02T10:56:44.600Z,1017.76
2019-01-02T10:57:44.592Z,1017.71
2019-01-02T10:58:44.589Z,1017.77
2019-01-02T10:59:44.568Z,1017.79
2019-01-02T11:00:44.548Z,1017.82
2019-01-02T11:01:44.574Z,1017.84
2019-01-02T11:02:44.551Z,1017.81
2019-01-02T11:03:44.540Z,1017.85
2019-01-02T11:04:44.524Z,1017.86
2019-01-02T11:05:44.497Z,1017.87
2019-01-02T11:06:44.508Z,1017.81
2019-01-02T11:07:44.477Z,1017.80
2019-01-02T11:08:44.469Z,1017.90
2019-01-02T11:09:44.456Z,1017.92
2019-01-02T11:10:44.456Z,1017.91
2019-01-02T11:11:44.456Z,1017.93
2019-01-02T11:12:44.417Z,1017.94
2019-01-02T11:13:44.406Z,1017.95
2019-01-02T11:14:44.403Z,1017.90
2019-01-02T11:15:44.389Z,1018.04
2019-01-02T11:16:44.417Z,1017.97
2019-01-02T11:17:44.365Z,1017.92
2019-01-02T11:18:44.350Z,1017.94
2019-01-02T11:19:44.342Z,1017.95
2019-01-02T11:20:44.341Z,1017.94
2019-01-02T11:21:44.389Z,1018.00
2019-01-02T11:22:44.310Z,1018.03
2019-01-02T11:23:44.294Z,1017.95
2019-01-02T11:24:44.285Z,1017.87
2019-01-02T11:25:44.282Z,1017.94
2019-01-02T11:26:44.277Z,1017.98
2019-01-02T11:27:44.251Z,1018.01
2019-01-02T11:28:44.249Z,1017.99
2019-01-02T11:29:44.235Z,1018.00
2019-01-02T11:30:44.220Z,1018.04
2019-01-02T11:31:44.245Z,1018.04
2019-01-02T11:32:44.195Z,1018.06
2019-01-02T11:33:44.206Z,1018.17
2019-01-02T11:34:44.180Z,1018.09
2019-01-02T11:35:44.158Z,1018.17
2019-01-02T11:36:44.172Z,1018.12
2019-01-02T11:37:44.134Z,1018.10
2019-01-02T11:38:44.169Z,1018.14
2019-01-02T11:39:44.134Z,1018.15
2019-01-02T11:40:44.117Z,1018.18
2019-01-02T11:41:44.114Z,1018.21
2019-01-02T11:42:44.096Z,1018.24
2019-01-02T11:43:44.073Z,1018.23
2019-01-02T11:44:44.069Z,1018.21
2019-01-02T11:45:44.043Z,1018.30
2019-01-02T11:46:44.062Z,1018.25
2019-01-02T11:47:44.020Z,1018.20
2019-01-02T11:48:44.014Z,1018.24
2019-01-02T11:49:44.032Z,1018.37
2019-01-02T11:50:43.992Z,1018.34
2019-01-02T11:51:44.116Z,1018.39
2019-01-02T11:52:43.964Z,1018.33
2019-01-02T11:53:43.965Z,1018.44
2019-01-02T11:54:43.950Z,1018.40
2019-01-02T11:55:43.975Z,1018.32
2019-01-02T11:56:43.942Z,1018.32
2019-01-02T11:57:43.935Z,1018.38
2019-01-02T11:58:49.787Z,1018.33
2019-01-02T11:59:44.894Z,1018.43
2019-01-02T12:00:43.885Z,1018.42
2019-01-02T12:01:43.875Z,1018.49
2019-01-02T12:02:43.877Z,1018.31
2019-01-02T12:03:43.890Z,1018.49
2019-01-02T12:04:43.896Z,1018.49
2019-01-02T12:05:43.827Z,1018.51